sensor_id;sensor_type;location;lat;lon;timestamp;pressure;altitude;pressure_sealevel;temperature;humidity
35655;BME280;21773;50.010;19.972;2022-12-26T00:00:19;98898.41;;;9.57;58.44
35655;BME280;21773;50.010;19.972;2022-12-26T00:03:23;98907.69;;;9.62;58.40
35655;BME280;21773;50.010;19.972;2022-12-26T00:06:29;98909.13;;;9.64;58.31
35655;BME280;21773;50.010;19.972;2022-12-26T00:09:33;98906.22;;;9.66;58.20
35655;BME280;21773;50.010;19.972;2022-12-26T00:12:36;98910.56;;;9.67;58.22
35655;BME280;21773;50.010;19.972;2022-12-26T00:15:41;98900.81;;;9.72;58.13
35655;BME280;21773;50.010;19.972;2022-12-26T00:18:45;98886.94;;;9.69;58.22
35655;BME280;21773;50.010;19.972;2022-12-26T00:21:50;98866.03;;;9.64;58.07
35655;BME280;21773;50.010;19.972;2022-12-26T00:24:53;98858.03;;;9.57;58.08
35655;BME280;21773;50.010;19.972;2022-12-26T00:27:57;98847.88;;;9.53;58.28
35655;BME280;21773;50.010;19.972;2022-12-26T00:31:03;98804.63;;;9.23;58.14
35655;BME280;21773;50.010;19.972;2022-12-26T00:34:06;98832.22;;;9.43;57.99
35655;BME280;21773;50.010;19.972;2022-12-26T00:37:11;98762.16;;;8.94;58.10
35655;BME280;21773;50.010;19.972;2022-12-26T00:40:16;98831.16;;;9.44;57.59
35655;BME280;21773;50.010;19.972;2022-12-26T00:43:19;98829.97;;;9.40;57.65
35655;BME280;21773;50.010;19.972;2022-12-26T00:46:23;98830.81;;;9.34;57.75
35655;BME280;21773;50.010;19.972;2022-12-26T00:49:27;98828.53;;;9.38;57.77
35655;BME280;21773;50.010;19.972;2022-12-26T00:52:52;98829.56;;;9.37;57.80
35655;BME280;21773;50.010;19.972;2022-12-26T00:55:56;98836.00;;;9.36;57.78
35655;BME280;21773;50.010;19.972;2022-12-26T00:58:59;98830.81;;;9.34;57.86
35655;BME280;21773;50.010;19.972;2022-12-26T01:02:02;98826.06;;;9.36;57.54
35655;BME280;21773;50.010;19.972;2022-12-26T01:05:27;98830.59;;;9.36;57.74
35655;BME280;21773;50.010;19.972;2022-12-26T01:08:32;98832.44;;;9.42;57.75
35655;BME280;21773;50.010;19.972;2022-12-26T01:11:35;98819.00;;;9.42;57.46
35655;BME280;21773;50.010;19.972;2022-12-26T01:14:46;98812.78;;;9.41;57.49
35655;BME280;21773;50.010;19.972;2022-12-26T01:17:49;98809.91;;;9.36;57.50
35655;BME280;21773;50.010;19.972;2022-12-26T01:20:57;98780.88;;;9.13;57.58
35655;BME280;21773;50.010;19.972;2022-12-26T01:24:02;98813.28;;;9.25;57.89
35655;BME280;21773;50.010;19.972;2022-12-26T01:27:06;98827.56;;;9.19;57.82
35655;BME280;21773;50.010;19.972;2022-12-26T01:30:10;98812.25;;;9.20;57.75
35655;BME280;21773;50.010;19.972;2022-12-26T01:33:13;98827.34;;;9.27;57.97
35655;BME280;21773;50.010;19.972;2022-12-26T01:36:17;98819.03;;;9.29;58.18
35655;BME280;21773;50.010;19.972;2022-12-26T01:39:22;98818.00;;;9.30;58.29
35655;BME280;21773;50.010;19.972;2022-12-26T01:42:25;98818.44;;;9.33;58.56
35655;BME280;21773;50.010;19.972;2022-12-26T01:45:36;98809.09;;;9.36;58.35
35655;BME280;21773;50.010;19.972;2022-12-26T01:48:41;98811.13;;;9.40;58.65
35655;BME280;21773;50.010;19.972;2022-12-26T01:51:48;98820.19;;;9.46;58.55
35655;BME280;21773;50.010;19.972;2022-12-26T01:54:55;98810.47;;;9.45;58.46
35655;BME280;21773;50.010;19.972;2022-12-26T01:58:03;98801.94;;;9.54;58.56
35655;BME280;21773;50.010;19.972;2022-12-26T02:01:08;98807.31;;;9.54;58.42
35655;BME280;21773;50.010;19.972;2022-12-26T02:04:16;98816.78;;;9.64;58.14
35655;BME280;21773;50.010;19.972;2022-12-26T02:07:41;98804.97;;;9.65;58.14
35655;BME280;21773;50.010;19.972;2022-12-26T02:10:51;98802.06;;;9.66;57.97
35655;BME280;21773;50.010;19.972;2022-12-26T02:13:58;98792.94;;;9.67;58.05
35655;BME280;21773;50.010;19.972;2022-12-26T02:17:02;98800.41;;;9.65;58.34
35655;BME280;21773;50.010;19.972;2022-12-26T02:20:15;98787.13;;;9.70;58.29
35655;BME280;21773;50.010;19.972;2022-12-26T02:23:36;98782.13;;;9.74;58.07
35655;BME280;21773;50.010;19.972;2022-12-26T02:27:07;98776.06;;;9.78;58.04
35655;BME280;21773;50.010;19.972;2022-12-26T02:30:39;98782.91;;;9.81;57.71
35655;BME280;21773;50.010;19.972;2022-12-26T02:33:59;98776.47;;;9.82;57.76
35655;BME280;21773;50.010;19.972;2022-12-26T02:37:18;98780.59;;;9.84;57.71
35655;BME280;21773;50.010;19.972;2022-12-26T02:40:35;98767.75;;;9.86;57.78
35655;BME280;21773;50.010;19.972;2022-12-26T02:43:53;98763.94;;;9.94;57.65
35655;BME280;21773;50.010;19.972;2022-12-26T02:47:07;98754.00;;;9.94;57.62
35655;BME280;21773;50.010;19.972;2022-12-26T02:50:17;98747.19;;;9.92;57.61
35655;BME280;21773;50.010;19.972;2022-12-26T02:53:47;98721.06;;;9.92;57.47
35655;BME280;21773;50.010;19.972;2022-12-26T02:57:30;98687.13;;;9.91;57.10
35655;BME280;21773;50.010;19.972;2022-12-26T03:00:59;98683.19;;;9.87;57.12
35655;BME280;21773;50.010;19.972;2022-12-26T03:04:35;98686.56;;;9.83;57.24
35655;BME280;21773;50.010;19.972;2022-12-26T03:08:00;98682.25;;;9.82;57.53
35655;BME280;21773;50.010;19.972;2022-12-26T03:11:25;98685.53;;;9.84;57.41
35655;BME280;21773;50.010;19.972;2022-12-26T03:14:51;98664.06;;;9.77;57.34
35655;BME280;21773;50.010;19.972;2022-12-26T03:18:00;98695.22;;;9.91;57.62
35655;BME280;21773;50.010;19.972;2022-12-26T03:21:06;98711.94;;;9.93;57.20
35655;BME280;21773;50.010;19.972;2022-12-26T03:24:13;98709.75;;;9.84;57.32
35655;BME280;21773;50.010;19.972;2022-12-26T03:27:18;98715.00;;;9.97;57.27
35655;BME280;21773;50.010;19.972;2022-12-26T03:30:21;98706.34;;;9.95;57.24
35655;BME280;21773;50.010;19.972;2022-12-26T03:33:43;98699.59;;;9.86;56.97
35655;BME280;21773;50.010;19.972;2022-12-26T03:37:25;98706.84;;;9.85;57.45
35655;BME280;21773;50.010;19.972;2022-12-26T03:40:53;98697.13;;;9.84;57.12
35655;BME280;21773;50.010;19.972;2022-12-26T03:44:25;98696.09;;;9.85;56.89
35655;BME280;21773;50.010;19.972;2022-12-26T03:48:05;98709.97;;;9.82;57.08
35655;BME280;21773;50.010;19.972;2022-12-26T03:51:34;98705.09;;;9.73;57.11
35655;BME280;21773;50.010;19.972;2022-12-26T03:55:05;98703.63;;;9.52;57.62
35655;BME280;21773;50.010;19.972;2022-12-26T03:58:31;98697.25;;;9.46;57.83
35655;BME280;21773;50.010;19.972;2022-12-26T04:01:54;98685.97;;;9.31;58.31
35655;BME280;21773;50.010;19.972;2022-12-26T04:05:16;98685.19;;;9.24;58.37
35655;BME280;21773;50.010;19.972;2022-12-26T04:08:43;98685.84;;;9.20;58.20
35655;BME280;21773;50.010;19.972;2022-12-26T04:12:10;98673.41;;;9.25;58.22
35655;BME280;21773;50.010;19.972;2022-12-26T04:15:40;98674.41;;;9.31;57.99
35655;BME280;21773;50.010;19.972;2022-12-26T04:19:11;98675.38;;;9.36;57.72
35655;BME280;21773;50.010;19.972;2022-12-26T04:22:34;98664.09;;;9.28;58.13
35655;BME280;21773;50.010;19.972;2022-12-26T04:26:02;98658.69;;;9.28;58.05
35655;BME280;21773;50.010;19.972;2022-12-26T04:29:25;98661.16;;;9.29;58.17
35655;BME280;21773;50.010;19.972;2022-12-26T04:32:47;98650.19;;;9.31;57.80
35655;BME280;21773;50.010;19.972;2022-12-26T04:36:14;98643.78;;;9.32;57.98
35655;BME280;21773;50.010;19.972;2022-12-26T04:39:39;98651.84;;;9.32;58.03
35655;BME280;21773;50.010;19.972;2022-12-26T04:43:04;98640.88;;;9.33;57.90
35655;BME280;21773;50.010;19.972;2022-12-26T04:46:47;98621.41;;;9.31;57.88
35655;BME280;21773;50.010;19.972;2022-12-26T04:49:51;98628.81;;;9.36;57.87
35655;BME280;21773;50.010;19.972;2022-12-26T04:53:13;98625.09;;;9.37;58.15
35655;BME280;21773;50.010;19.972;2022-12-26T04:56:17;98628.63;;;9.37;58.03
35655;BME280;21773;50.010;19.972;2022-12-26T04:59:21;98610.16;;;9.16;57.72
35655;BME280;21773;50.010;19.972;2022-12-26T05:02:26;98618.28;;;9.34;58.32
35655;BME280;21773;50.010;19.972;2022-12-26T05:05:49;98620.38;;;9.32;57.99
35655;BME280;21773;50.010;19.972;2022-12-26T05:09:14;98618.06;;;9.36;57.99
35655;BME280;21773;50.010;19.972;2022-12-26T05:12:42;98620.53;;;9.37;58.02
35655;BME280;21773;50.010;19.972;2022-12-26T05:15:46;98622.78;;;9.40;57.96
35655;BME280;21773;50.010;19.972;2022-12-26T05:19:11;98618.22;;;9.41;57.92
35655;BME280;21773;50.010;19.972;2022-12-26T05:22:35;98624.22;;;9.43;58.13
35655;BME280;21773;50.010;19.972;2022-12-26T05:25:56;98613.72;;;9.35;57.61
35655;BME280;21773;50.010;19.972;2022-12-26T05:29:16;98628.13;;;9.47;57.54
35655;BME280;21773;50.010;19.972;2022-12-26T05:32:20;98631.38;;;9.49;57.82
35655;BME280;21773;50.010;19.972;2022-12-26T05:35:42;98639.09;;;9.45;57.51
35655;BME280;21773;50.010;19.972;2022-12-26T05:38:46;98636.53;;;9.32;57.16
35655;BME280;21773;50.010;19.972;2022-12-26T05:41:50;98664.63;;;9.36;56.79
35655;BME280;21773;50.010;19.972;2022-12-26T05:44:54;98653.31;;;9.28;56.64
35655;BME280;21773;50.010;19.972;2022-12-26T05:47:57;98652.16;;;9.17;56.73
35655;BME280;21773;50.010;19.972;2022-12-26T05:51:03;98628.09;;;8.97;56.82
35655;BME280;21773;50.010;19.972;2022-12-26T05:54:07;98647.91;;;9.03;57.00
35655;BME280;21773;50.010;19.972;2022-12-26T05:57:10;98646.91;;;8.97;56.98
35655;BME280;21773;50.010;19.972;2022-12-26T06:00:14;98656.84;;;8.97;56.82
35655;BME280;21773;50.010;19.972;2022-12-26T06:03:18;98637.50;;;8.82;56.91
35655;BME280;21773;50.010;19.972;2022-12-26T06:06:23;98660.63;;;8.89;57.32
35655;BME280;21773;50.010;19.972;2022-12-26T06:09:27;98641.09;;;8.69;57.33
35655;BME280;21773;50.010;19.972;2022-12-26T06:12:32;98667.03;;;8.88;57.59
35655;BME280;21773;50.010;19.972;2022-12-26T06:15:37;98669.72;;;8.88;58.40
35655;BME280;21773;50.010;19.972;2022-12-26T06:18:41;98674.88;;;8.90;58.64
35655;BME280;21773;50.010;19.972;2022-12-26T06:21:45;98669.50;;;8.90;58.98
35655;BME280;21773;50.010;19.972;2022-12-26T06:24:49;98668.16;;;9.05;59.09
35655;BME280;21773;50.010;19.972;2022-12-26T06:27:53;98673.50;;;9.12;58.58
35655;BME280;21773;50.010;19.972;2022-12-26T06:31:01;98674.72;;;9.16;58.38
35655;BME280;21773;50.010;19.972;2022-12-26T06:34:04;98657.53;;;9.17;58.38
35655;BME280;21773;50.010;19.972;2022-12-26T06:37:09;98667.44;;;9.23;58.39
35655;BME280;21773;50.010;19.972;2022-12-26T06:40:12;98681.53;;;9.19;58.27
35655;BME280;21773;50.010;19.972;2022-12-26T06:43:16;98680.72;;;9.18;57.99
35655;BME280;21773;50.010;19.972;2022-12-26T06:46:21;98680.91;;;9.17;57.86
35655;BME280;21773;50.010;19.972;2022-12-26T06:49:24;98679.47;;;9.14;58.00
35655;BME280;21773;50.010;19.972;2022-12-26T06:52:35;98677.59;;;9.14;57.87
35655;BME280;21773;50.010;19.972;2022-12-26T06:55:38;98680.72;;;9.18;57.79
35655;BME280;21773;50.010;19.972;2022-12-26T06:58:42;98682.56;;;9.18;58.00
35655;BME280;21773;50.010;19.972;2022-12-26T07:01:47;98703.19;;;9.24;57.85
35655;BME280;21773;50.010;19.972;2022-12-26T07:04:50;98707.06;;;9.34;57.91
35655;BME280;21773;50.010;19.972;2022-12-26T07:07:55;98708.88;;;9.40;57.74
35655;BME280;21773;50.010;19.972;2022-12-26T07:10:58;98717.75;;;9.47;57.78
35655;BME280;21773;50.010;19.972;2022-12-26T07:14:02;98711.25;;;9.55;57.74
35655;BME280;21773;50.010;19.972;2022-12-26T07:17:06;98709.34;;;9.62;57.44
35655;BME280;21773;50.010;19.972;2022-12-26T07:20:11;98710.09;;;9.69;57.24
35655;BME280;21773;50.010;19.972;2022-12-26T07:23:16;98694.38;;;10.34;56.19
35655;BME280;21773;50.010;19.972;2022-12-26T07:26:20;98708.03;;;11.93;52.09
35655;BME280;21773;50.010;19.972;2022-12-26T07:29:24;98671.25;;;13.52;47.88
35655;BME280;21773;50.010;19.972;2022-12-26T07:32:27;98673.50;;;15.19;43.72
35655;BME280;21773;50.010;19.972;2022-12-26T07:35:31;98689.09;;;16.34;41.21
35655;BME280;21773;50.010;19.972;2022-12-26T07:38:36;98671.25;;;17.77;39.16
35655;BME280;21773;50.010;19.972;2022-12-26T07:41:39;98685.63;;;19.12;37.40
35655;BME280;21773;50.010;19.972;2022-12-26T07:45:01;98674.06;;;20.98;34.92
35655;BME280;21773;50.010;19.972;2022-12-26T07:48:04;98677.00;;;22.55;32.59
35655;BME280;21773;50.010;19.972;2022-12-26T07:51:09;98656.84;;;23.72;30.59
35655;BME280;21773;50.010;19.972;2022-12-26T07:54:13;98688.00;;;24.04;29.93
35655;BME280;21773;50.010;19.972;2022-12-26T07:57:17;98686.28;;;22.73;31.24
35655;BME280;21773;50.010;19.972;2022-12-26T08:00:40;98689.84;;;21.06;33.25
35655;BME280;21773;50.010;19.972;2022-12-26T08:03:44;98693.84;;;19.56;35.06
35655;BME280;21773;50.010;19.972;2022-12-26T08:06:49;98723.56;;;18.54;37.10
35655;BME280;21773;50.010;19.972;2022-12-26T08:09:54;98714.06;;;17.61;38.48
35655;BME280;21773;50.010;19.972;2022-12-26T08:12:57;98707.88;;;16.93;39.81
35655;BME280;21773;50.010;19.972;2022-12-26T08:16:04;98704.88;;;16.37;40.73
35655;BME280;21773;50.010;19.972;2022-12-26T08:19:08;98697.53;;;15.96;41.72
35655;BME280;21773;50.010;19.972;2022-12-26T08:22:12;98701.38;;;15.63;42.46
35655;BME280;21773;50.010;19.972;2022-12-26T08:25:17;98709.50;;;15.36;42.92
35655;BME280;21773;50.010;19.972;2022-12-26T08:28:40;98706.44;;;15.06;44.01
35655;BME280;21773;50.010;19.972;2022-12-26T08:31:44;98702.97;;;14.84;44.49
35655;BME280;21773;50.010;19.972;2022-12-26T08:34:47;98710.84;;;14.63;45.15
35655;BME280;21773;50.010;19.972;2022-12-26T08:37:50;98717.34;;;14.41;45.47
35655;BME280;21773;50.010;19.972;2022-12-26T08:40:55;98697.06;;;14.10;46.17
35655;BME280;21773;50.010;19.972;2022-12-26T08:43:59;98728.69;;;14.04;46.59
35655;BME280;21773;50.010;19.972;2022-12-26T08:47:23;98728.13;;;13.85;47.01
35655;BME280;21773;50.010;19.972;2022-12-26T08:50:28;98721.06;;;13.68;47.37
35655;BME280;21773;50.010;19.972;2022-12-26T08:53:32;98723.03;;;13.56;47.59
35655;BME280;21773;50.010;19.972;2022-12-26T08:56:38;98719.31;;;13.45;47.82
35655;BME280;21773;50.010;19.972;2022-12-26T08:59:42;98737.97;;;13.30;48.39
35655;BME280;21773;50.010;19.972;2022-12-26T09:02:47;98727.56;;;13.22;48.96
35655;BME280;21773;50.010;19.972;2022-12-26T09:05:50;98725.81;;;13.16;49.27
35655;BME280;21773;50.010;19.972;2022-12-26T09:08:53;98734.84;;;13.10;49.44
35655;BME280;21773;50.010;19.972;2022-12-26T09:11:58;98735.34;;;13.07;49.20
35655;BME280;21773;50.010;19.972;2022-12-26T09:15:02;98719.25;;;13.00;49.22
35655;BME280;21773;50.010;19.972;2022-12-26T09:18:05;98729.13;;;13.06;49.40
35655;BME280;21773;50.010;19.972;2022-12-26T09:21:10;98730.53;;;13.09;49.26
35655;BME280;21773;50.010;19.972;2022-12-26T09:24:16;98718.38;;;13.23;49.17
35655;BME280;21773;50.010;19.972;2022-12-26T09:27:21;98720.13;;;13.45;48.83
35655;BME280;21773;50.010;19.972;2022-12-26T09:30:25;98731.53;;;15.13;46.53
35655;BME280;21773;50.010;19.972;2022-12-26T09:33:29;98722.00;;;15.96;44.37
35655;BME280;21773;50.010;19.972;2022-12-26T09:36:36;98692.13;;;16.01;43.82
35655;BME280;21773;50.010;19.972;2022-12-26T09:39:39;98712.88;;;16.12;43.76
35655;BME280;21773;50.010;19.972;2022-12-26T09:42:52;98714.06;;;16.26;43.42
35655;BME280;21773;50.010;19.972;2022-12-26T09:46:01;98719.75;;;16.67;42.95
35655;BME280;21773;50.010;19.972;2022-12-26T09:49:16;98718.44;;;16.74;42.52
35655;BME280;21773;50.010;19.972;2022-12-26T09:52:36;98725.25;;;16.77;42.96
35655;BME280;21773;50.010;19.972;2022-12-26T09:55:43;98712.03;;;16.54;43.44
35655;BME280;21773;50.010;19.972;2022-12-26T09:58:53;98697.66;;;16.11;43.58
35655;BME280;21773;50.010;19.972;2022-12-26T10:01:58;98714.06;;;15.89;44.05
35655;BME280;21773;50.010;19.972;2022-12-26T10:05:04;98709.78;;;15.62;44.82
35655;BME280;21773;50.010;19.972;2022-12-26T10:08:22;98695.81;;;15.26;45.72
35655;BME280;21773;50.010;19.972;2022-12-26T10:11:38;98714.81;;;14.99;46.54
35655;BME280;21773;50.010;19.972;2022-12-26T10:14:51;98719.34;;;14.72;47.30
35655;BME280;21773;50.010;19.972;2022-12-26T10:18:05;98721.88;;;14.57;48.02
35655;BME280;21773;50.010;19.972;2022-12-26T10:21:25;98710.09;;;14.29;48.57
35655;BME280;21773;50.010;19.972;2022-12-26T10:24:35;98710.69;;;14.31;48.61
35655;BME280;21773;50.010;19.972;2022-12-26T10:27:40;98709.56;;;14.32;49.31
35655;BME280;21773;50.010;19.972;2022-12-26T10:30:47;98703.25;;;14.27;49.20
35655;BME280;21773;50.010;19.972;2022-12-26T10:33:55;98700.31;;;14.28;49.40
35655;BME280;21773;50.010;19.972;2022-12-26T10:37:04;98717.47;;;14.34;49.35
35655;BME280;21773;50.010;19.972;2022-12-26T10:40:18;98706.63;;;14.34;49.88
35655;BME280;21773;50.010;19.972;2022-12-26T10:43:25;98666.88;;;14.40;49.69
35655;BME280;21773;50.010;19.972;2022-12-26T10:46:49;98681.00;;;14.63;49.87
35655;BME280;21773;50.010;19.972;2022-12-26T10:49:57;98667.56;;;14.73;49.54
35655;BME280;21773;50.010;19.972;2022-12-26T10:53:04;98650.03;;;15.40;48.43
35655;BME280;21773;50.010;19.972;2022-12-26T10:56:08;98665.53;;;16.08;46.92
35655;BME280;21773;50.010;19.972;2022-12-26T10:59:21;98659.09;;;16.24;46.56
35655;BME280;21773;50.010;19.972;2022-12-26T11:02:28;98659.88;;;16.15;46.50
35655;BME280;21773;50.010;19.972;2022-12-26T11:05:34;98651.63;;;16.04;46.98
35655;BME280;21773;50.010;19.972;2022-12-26T11:08:59;98647.53;;;15.97;47.48
35655;BME280;21773;50.010;19.972;2022-12-26T11:12:03;98645.34;;;15.99;47.81
35655;BME280;21773;50.010;19.972;2022-12-26T11:15:18;98629.09;;;16.09;47.83
35655;BME280;21773;50.010;19.972;2022-12-26T11:18:32;98621.88;;;16.30;47.45
35655;BME280;21773;50.010;19.972;2022-12-26T11:21:36;98626.38;;;16.61;46.81
35655;BME280;21773;50.010;19.972;2022-12-26T11:24:40;98637.66;;;17.20;46.09
35655;BME280;21773;50.010;19.972;2022-12-26T11:27:45;98631.88;;;18.23;44.67
35655;BME280;21773;50.010;19.972;2022-12-26T11:30:49;98645.66;;;19.60;42.22
35655;BME280;21773;50.010;19.972;2022-12-26T11:33:53;98638.72;;;20.54;39.88
35655;BME280;21773;50.010;19.972;2022-12-26T11:36:57;98645.91;;;22.00;37.62
35655;BME280;21773;50.010;19.972;2022-12-26T11:40:02;98656.59;;;23.24;34.94
35655;BME280;21773;50.010;19.972;2022-12-26T11:43:12;98650.34;;;23.32;34.03
35655;BME280;21773;50.010;19.972;2022-12-26T11:46:18;98648.69;;;23.09;33.86
35655;BME280;21773;50.010;19.972;2022-12-26T11:49:31;98640.88;;;22.62;34.64
35655;BME280;21773;50.010;19.972;2022-12-26T11:52:37;98632.22;;;21.81;35.89
35655;BME280;21773;50.010;19.972;2022-12-26T11:55:42;98623.91;;;20.98;36.94
35655;BME280;21773;50.010;19.972;2022-12-26T11:58:45;98635.53;;;20.47;37.85
35655;BME280;21773;50.010;19.972;2022-12-26T12:02:23;98625.53;;;20.38;38.80
35655;BME280;21773;50.010;19.972;2022-12-26T12:05:35;98615.34;;;21.23;37.43
35655;BME280;21773;50.010;19.972;2022-12-26T12:08:50;98618.59;;;22.50;35.64
35655;BME280;21773;50.010;19.972;2022-12-26T12:12:13;98609.81;;;23.83;33.69
35655;BME280;21773;50.010;19.972;2022-12-26T12:15:22;98611.69;;;24.35;32.36
35655;BME280;21773;50.010;19.972;2022-12-26T12:18:40;98613.22;;;24.58;32.65
35655;BME280;21773;50.010;19.972;2022-12-26T12:21:58;98608.06;;;24.57;32.05
35655;BME280;21773;50.010;19.972;2022-12-26T12:29:20;98591.16;;;24.10;32.25
35655;BME280;21773;50.010;19.972;2022-12-26T12:32:30;98587.66;;;24.19;32.39
35655;BME280;21773;50.010;19.972;2022-12-26T12:35:51;98593.50;;;23.64;32.83
35655;BME280;21773;50.010;19.972;2022-12-26T12:39:01;98582.41;;;23.11;33.67
35655;BME280;21773;50.010;19.972;2022-12-26T12:42:30;98588.16;;;22.87;34.08
35655;BME280;21773;50.010;19.972;2022-12-26T12:45:42;98582.28;;;22.39;34.87
35655;BME280;21773;50.010;19.972;2022-12-26T12:49:20;98581.81;;;21.77;35.92
35655;BME280;21773;50.010;19.972;2022-12-26T12:52:37;98565.50;;;21.53;36.17
35655;BME280;21773;50.010;19.972;2022-12-26T12:55:57;98574.03;;;21.66;36.14
35655;BME280;21773;50.010;19.972;2022-12-26T12:59:10;98570.50;;;21.33;36.78
35655;BME280;21773;50.010;19.972;2022-12-26T13:02:22;98573.91;;;20.87;37.25
35655;BME280;21773;50.010;19.972;2022-12-26T13:05:36;98571.22;;;20.45;38.42
35655;BME280;21773;50.010;19.972;2022-12-26T13:08:44;98556.09;;;20.00;39.47
35655;BME280;21773;50.010;19.972;2022-12-26T13:11:59;98559.94;;;19.75;39.59
35655;BME280;21773;50.010;19.972;2022-12-26T13:15:07;98551.94;;;19.55;40.25
35655;BME280;21773;50.010;19.972;2022-12-26T13:18:15;98554.84;;;19.34;40.91
35655;BME280;21773;50.010;19.972;2022-12-26T13:21:21;98559.06;;;19.17;41.09
35655;BME280;21773;50.010;19.972;2022-12-26T13:24:28;98564.97;;;18.95;41.88
35655;BME280;21773;50.010;19.972;2022-12-26T13:27:36;98575.22;;;18.74;42.38
35655;BME280;21773;50.010;19.972;2022-12-26T13:30:41;98580.19;;;18.57;42.70
35655;BME280;21773;50.010;19.972;2022-12-26T13:33:44;98580.28;;;18.42;43.00
35655;BME280;21773;50.010;19.972;2022-12-26T13:36:49;98592.09;;;18.22;43.41
35655;BME280;21773;50.010;19.972;2022-12-26T13:39:53;98593.50;;;17.99;43.92
35655;BME280;21773;50.010;19.972;2022-12-26T13:43:01;98603.34;;;17.80;44.15
35655;BME280;21773;50.010;19.972;2022-12-26T13:46:36;98609.34;;;17.57;44.61
35655;BME280;21773;50.010;19.972;2022-12-26T13:49:40;98603.38;;;17.40;44.95
35655;BME280;21773;50.010;19.972;2022-12-26T13:52:44;98602.25;;;17.51;45.13
35655;BME280;21773;50.010;19.972;2022-12-26T13:55:49;98588.13;;;17.44;44.85
35655;BME280;21773;50.010;19.972;2022-12-26T13:58:58;98594.38;;;17.24;45.55
35655;BME280;21773;50.010;19.972;2022-12-26T14:02:19;98588.38;;;17.12;45.58
35655;BME280;21773;50.010;19.972;2022-12-26T14:05:57;98600.88;;;17.03;45.94
35655;BME280;21773;50.010;19.972;2022-12-26T14:09:34;98598.94;;;16.83;46.25
35655;BME280;21773;50.010;19.972;2022-12-26T14:12:56;98601.09;;;16.66;46.93
35655;BME280;21773;50.010;19.972;2022-12-26T14:16:13;98595.00;;;16.48;47.20
35655;BME280;21773;50.010;19.972;2022-12-26T14:19:33;98591.41;;;16.33;47.72
35655;BME280;21773;50.010;19.972;2022-12-26T14:22:45;98601.13;;;16.19;47.86
35655;BME280;21773;50.010;19.972;2022-12-26T14:26:02;98594.25;;;16.01;48.71
35655;BME280;21773;50.010;19.972;2022-12-26T14:29:18;98604.25;;;15.90;48.73
35655;BME280;21773;50.010;19.972;2022-12-26T14:32:35;98601.22;;;15.82;48.91
35655;BME280;21773;50.010;19.972;2022-12-26T14:35:46;98594.09;;;15.76;48.95
35655;BME280;21773;50.010;19.972;2022-12-26T14:38:59;98585.94;;;15.76;48.98
35655;BME280;21773;50.010;19.972;2022-12-26T14:42:16;98582.63;;;15.69;49.38
35655;BME280;21773;50.010;19.972;2022-12-26T14:45:45;98592.13;;;15.66;49.40
35655;BME280;21773;50.010;19.972;2022-12-26T14:48:56;98596.78;;;15.71;49.37
35655;BME280;21773;50.010;19.972;2022-12-26T14:52:31;98595.38;;;15.63;49.38
35655;BME280;21773;50.010;19.972;2022-12-26T14:55:46;98581.25;;;15.66;49.42
35655;BME280;21773;50.010;19.972;2022-12-26T14:58:51;98603.91;;;15.77;49.51
35655;BME280;21773;50.010;19.972;2022-12-26T15:02:08;98611.22;;;15.76;49.54
35655;BME280;21773;50.010;19.972;2022-12-26T15:05:16;98598.59;;;15.60;49.50
35655;BME280;21773;50.010;19.972;2022-12-26T15:08:39;98611.94;;;15.62;49.83
35655;BME280;21773;50.010;19.972;2022-12-26T15:12:14;98612.44;;;15.53;50.07
35655;BME280;21773;50.010;19.972;2022-12-26T15:15:50;98606.88;;;15.43;50.50
35655;BME280;21773;50.010;19.972;2022-12-26T15:26:58;98600.81;;;15.31;50.95
35655;BME280;21773;50.010;19.972;2022-12-26T15:30:14;98605.16;;;15.32;50.82
35655;BME280;21773;50.010;19.972;2022-12-26T15:33:24;98610.28;;;15.29;51.06
35655;BME280;21773;50.010;19.972;2022-12-26T15:36:40;98594.16;;;15.17;51.49
35655;BME280;21773;50.010;19.972;2022-12-26T15:39:52;98593.59;;;15.15;51.63
35655;BME280;21773;50.010;19.972;2022-12-26T15:46:42;98588.88;;;15.05;52.29
35655;BME280;21773;50.010;19.972;2022-12-26T15:50:07;98581.56;;;15.06;52.26
35655;BME280;21773;50.010;19.972;2022-12-26T15:53:25;98580.00;;;15.10;52.05
35655;BME280;21773;50.010;19.972;2022-12-26T15:56:59;98589.81;;;15.16;52.05
35655;BME280;21773;50.010;19.972;2022-12-26T16:00:11;98587.38;;;15.14;52.17
35655;BME280;21773;50.010;19.972;2022-12-26T16:03:28;98585.44;;;15.15;52.12
35655;BME280;21773;50.010;19.972;2022-12-26T16:06:47;98577.09;;;15.22;51.98
35655;BME280;21773;50.010;19.972;2022-12-26T16:09:53;98574.59;;;15.15;52.15
35655;BME280;21773;50.010;19.972;2022-12-26T16:13:00;98574.28;;;15.11;52.38
35655;BME280;21773;50.010;19.972;2022-12-26T16:16:08;98568.56;;;15.08;52.64
35655;BME280;21773;50.010;19.972;2022-12-26T16:19:16;98560.91;;;15.00;52.88
35655;BME280;21773;50.010;19.972;2022-12-26T16:22:26;98557.03;;;14.96;52.82
35655;BME280;21773;50.010;19.972;2022-12-26T16:25:46;98568.19;;;14.94;52.98
35655;BME280;21773;50.010;19.972;2022-12-26T16:28:50;98566.53;;;14.93;53.23
35655;BME280;21773;50.010;19.972;2022-12-26T16:32:02;98565.97;;;14.91;53.37
35655;BME280;21773;50.010;19.972;2022-12-26T16:35:16;98560.84;;;14.95;53.29
35655;BME280;21773;50.010;19.972;2022-12-26T16:38:24;98556.50;;;14.94;53.32
35655;BME280;21773;50.010;19.972;2022-12-26T16:41:30;98558.19;;;15.00;53.05
35655;BME280;21773;50.010;19.972;2022-12-26T16:44:36;98561.75;;;15.05;52.36
35655;BME280;21773;50.010;19.972;2022-12-26T16:47:42;98562.31;;;15.07;52.30
35655;BME280;21773;50.010;19.972;2022-12-26T16:50:47;98569.47;;;15.18;51.94
35655;BME280;21773;50.010;19.972;2022-12-26T16:53:51;98574.94;;;15.24;51.68
35655;BME280;21773;50.010;19.972;2022-12-26T16:57:05;98575.25;;;15.27;51.72
35655;BME280;21773;50.010;19.972;2022-12-26T17:00:16;98578.50;;;15.24;51.78
35655;BME280;21773;50.010;19.972;2022-12-26T17:03:28;98584.75;;;15.30;51.75